createdAt,value
2022-10-14T00:01:18.975Z,36.85
2022-10-14T00:03:49.436Z,37.10
2022-10-14T00:06:22.860Z,36.30
2022-10-14T00:08:51.025Z,37.55
2022-10-14T00:11:21.430Z,38.28
2022-10-14T00:13:50.318Z,38.80
2022-10-14T00:16:20.801Z,34.67
2022-10-14T00:18:51.186Z,39.13
2022-10-14T00:21:19.586Z,36.92
2022-10-14T00:23:48.218Z,36.33
2022-10-14T00:26:22.161Z,36.47
2022-10-14T00:28:51.329Z,38.42
2022-10-14T00:31:19.694Z,39.42
2022-10-14T00:33:50.418Z,39.25
2022-10-14T00:36:21.181Z,39.15
2022-10-14T00:38:50.072Z,40.22
2022-10-14T00:41:20.899Z,37.40
2022-10-14T00:43:55.726Z,39.20
2022-10-14T00:46:24.190Z,39.40
2022-10-14T00:48:59.754Z,40.40
2022-10-14T00:51:28.470Z,41.33
2022-10-14T00:53:56.562Z,42.22
2022-10-14T00:56:30.018Z,38.67
2022-10-14T00:58:58.833Z,40.25
2022-10-14T01:01:26.877Z,40.70
2022-10-14T01:03:55.245Z,39.40
2022-10-14T01:06:42.323Z,40.80
2022-10-14T01:09:21.288Z,40.00
2022-10-14T01:12:27.567Z,43.33
2022-10-14T01:14:59.991Z,44.03
2022-10-14T01:17:37.360Z,38.00
2022-10-14T01:20:31.910Z,40.25
2022-10-14T01:23:18.800Z,40.47
2022-10-14T01:25:58.411Z,41.13
2022-10-14T01:28:35.858Z,40.15
2022-10-14T01:31:10.481Z,41.20
2022-10-14T01:33:41.201Z,38.85
2022-10-14T01:36:13.769Z,40.63
2022-10-14T01:38:46.066Z,41.50
2022-10-14T01:41:20.914Z,40.45
2022-10-14T01:43:51.591Z,41.38
2022-10-14T01:46:24.250Z,42.28
2022-10-14T01:48:55.768Z,40.70
2022-10-14T01:51:28.051Z,40.58
2022-10-14T01:53:59.970Z,44.88
2022-10-14T01:56:30.529Z,50.85
2022-10-14T01:59:01.713Z,49.33
2022-10-14T02:01:35.010Z,45.95
2022-10-14T02:04:03.170Z,45.78
2022-10-14T02:06:34.877Z,47.03
2022-10-14T02:09:12.962Z,46.60
2022-10-14T02:11:59.096Z,49.28
2022-10-14T02:14:40.254Z,48.28
2022-10-14T02:17:13.638Z,51.55
2022-10-14T02:19:49.922Z,55.05
2022-10-14T02:22:25.387Z,50.15
2022-10-14T02:24:58.829Z,48.40
2022-10-14T02:27:29.426Z,52.63
2022-10-14T02:30:00.724Z,54.70
2022-10-14T02:32:30.934Z,52.00
2022-10-14T02:35:01.076Z,47.05
2022-10-14T02:37:30.821Z,44.40
2022-10-14T02:40:07.503Z,39.92
2022-10-14T02:42:35.893Z,38.72
2022-10-14T02:45:07.501Z,49.42
2022-10-14T02:47:36.958Z,37.45
2022-10-14T02:50:05.482Z,36.85
2022-10-14T02:52:33.487Z,59.28
2022-10-14T02:55:01.595Z,55.92
2022-10-14T02:57:29.595Z,53.85
2022-10-14T02:59:58.274Z,57.75
2022-10-14T03:02:26.551Z,59.45
2022-10-14T03:04:56.285Z,64.28
2022-10-14T03:07:24.534Z,50.65
2022-10-14T03:09:53.946Z,58.65
2022-10-14T03:12:25.034Z,65.65
2022-10-14T03:14:55.916Z,60.88
2022-10-14T03:17:26.079Z,67.28
2022-10-14T03:19:59.322Z,56.83
2022-10-14T03:22:27.820Z,62.78
2022-10-14T03:24:56.786Z,61.55
2022-10-14T03:27:40.018Z,51.88
2022-10-14T03:30:12.953Z,63.00
2022-10-14T03:32:52.917Z,59.08
2022-10-14T03:35:43.004Z,61.03
2022-10-14T03:38:14.333Z,61.30
2022-10-14T03:40:42.982Z,62.35
2022-10-14T03:43:13.428Z,58.00
2022-10-14T03:45:49.945Z,44.00
2022-10-14T03:48:20.571Z,58.85
2022-10-14T03:50:50.226Z,58.50
2022-10-14T03:53:20.629Z,51.70
2022-10-14T03:55:50.402Z,60.05
2022-10-14T03:58:18.486Z,54.45
2022-10-14T04:00:51.648Z,62.50
2022-10-14T04:03:42.818Z,61.45
2022-10-14T04:06:12.277Z,59.33
2022-10-14T04:08:40.342Z,60.17
2022-10-14T04:11:23.122Z,48.67
2022-10-14T04:13:58.179Z,34.03
2022-10-14T04:16:27.718Z,59.97
2022-10-14T04:19:01.262Z,64.78
2022-10-14T04:21:30.677Z,62.28
2022-10-14T04:23:59.411Z,50.90
2022-10-14T04:26:39.995Z,53.00
2022-10-14T04:29:14.169Z,44.72
2022-10-14T04:31:52.779Z,43.60
2022-10-14T04:34:21.690Z,49.72
2022-10-14T04:36:51.166Z,46.80
2022-10-14T04:39:30.533Z,54.72
2022-10-14T04:41:59.046Z,42.13
2022-10-14T04:44:27.085Z,55.95
2022-10-14T04:46:56.130Z,43.00
2022-10-14T04:49:26.397Z,48.25
2022-10-14T04:52:05.166Z,53.05
2022-10-14T04:54:41.989Z,41.15
2022-10-14T04:57:10.911Z,41.72
2022-10-14T04:59:40.141Z,44.72
2022-10-14T05:02:34.019Z,39.92
2022-10-14T05:05:03.554Z,44.03
2022-10-14T05:07:38.207Z,46.05
2022-10-14T05:10:41.295Z,42.92
2022-10-14T05:13:15.538Z,41.33
2022-10-14T05:15:55.524Z,44.70
2022-10-14T05:18:23.594Z,37.80
2022-10-14T05:20:59.955Z,33.97
2022-10-14T05:23:41.598Z,31.63
2022-10-14T05:26:10.847Z,35.45
2022-10-14T05:28:40.871Z,35.55
2022-10-14T05:31:10.791Z,37.60
2022-10-14T05:33:46.992Z,38.20
2022-10-14T05:36:15.046Z,40.08
2022-10-14T05:38:44.526Z,32.70
2022-10-14T05:41:12.735Z,36.85
2022-10-14T05:43:41.191Z,34.30
2022-10-14T05:46:09.259Z,40.45
2022-10-14T05:48:40.526Z,36.28
2022-10-14T05:51:08.567Z,26.48
2022-10-14T05:53:39.893Z,31.65
2022-10-14T05:56:14.895Z,24.33
2022-10-14T05:58:43.057Z,18.67
2022-10-14T06:01:12.127Z,21.30
2022-10-14T06:03:42.414Z,21.25
2022-10-14T06:06:14.007Z,19.75
2022-10-14T06:08:42.550Z,19.10
2022-10-14T06:11:10.813Z,17.23
2022-10-14T06:13:41.322Z,19.30
2022-10-14T06:16:11.303Z,17.30
2022-10-14T06:18:39.785Z,18.67
2022-10-14T06:21:08.385Z,18.95
2022-10-14T06:23:36.664Z,19.52
2022-10-14T06:26:06.062Z,20.60
2022-10-14T06:28:34.192Z,19.05
2022-10-14T06:31:04.004Z,18.00
2022-10-14T06:33:32.290Z,20.92
2022-10-14T06:36:02.635Z,21.70
2022-10-14T06:38:30.642Z,19.15
2022-10-14T06:40:58.739Z,19.77
2022-10-14T06:43:26.974Z,19.05
2022-10-14T06:45:57.947Z,18.65
2022-10-14T06:48:27.378Z,18.27
2022-10-14T06:50:55.391Z,17.95
2022-10-14T06:53:23.398Z,17.63
2022-10-14T06:55:57.788Z,17.80
2022-10-14T06:58:25.850Z,19.50
2022-10-14T07:00:53.922Z,19.50
2022-10-14T07:03:22.226Z,18.15
2022-10-14T07:05:51.968Z,20.00
2022-10-14T07:08:20.038Z,19.42
2022-10-14T07:10:48.630Z,18.55
2022-10-14T07:13:16.630Z,19.80
2022-10-14T07:15:44.600Z,21.83
2022-10-14T07:18:12.665Z,21.73
2022-10-14T07:20:40.706Z,20.27
2022-10-14T07:23:10.077Z,19.98
2022-10-14T07:25:38.314Z,22.13
2022-10-14T07:28:06.733Z,18.98
2022-10-14T07:30:35.019Z,19.65
2022-10-14T07:33:03.653Z,19.75
2022-10-14T07:35:31.716Z,19.02
2022-10-14T07:38:00.243Z,19.48
2022-10-14T07:40:30.130Z,19.23
2022-10-14T07:42:58.141Z,19.80
2022-10-14T07:45:26.167Z,20.77
2022-10-14T07:47:54.283Z,19.98
2022-10-14T07:50:22.490Z,20.48
2022-10-14T07:52:50.630Z,20.27
2022-10-14T07:55:18.925Z,20.90
2022-10-14T07:57:48.318Z,19.88
2022-10-14T08:00:16.481Z,19.02
2022-10-14T08:02:44.491Z,20.95
2022-10-14T08:05:36.386Z,21.70
2022-10-14T08:08:00.595Z,20.73
2022-10-14T08:10:28.775Z,21.02
2022-10-14T08:12:58.202Z,20.85
2022-10-14T08:15:28.611Z,20.25
2022-10-14T08:17:56.865Z,21.80
2022-10-14T08:20:25.351Z,20.80
2022-10-14T08:22:53.398Z,23.40
2022-10-14T08:25:21.450Z,20.52
2022-10-14T08:27:51.161Z,19.73
2022-10-14T08:30:20.743Z,19.83
2022-10-14T08:32:48.792Z,20.13
2022-10-14T08:35:17.051Z,19.83
2022-10-14T08:37:45.118Z,20.67
2022-10-14T08:40:17.135Z,19.77
2022-10-14T08:42:55.790Z,19.85
2022-10-14T08:45:31.576Z,18.73
2022-10-14T08:48:01.610Z,19.85
2022-10-14T08:50:34.471Z,19.38
2022-10-14T08:53:07.978Z,19.35
2022-10-14T08:55:40.506Z,20.70
2022-10-14T08:58:17.820Z,21.10
2022-10-14T09:00:52.720Z,20.35
2022-10-14T09:03:23.510Z,20.25
2022-10-14T09:05:58.741Z,21.30
2022-10-14T09:08:33.569Z,20.02
2022-10-14T09:11:01.777Z,20.33
2022-10-14T09:13:34.395Z,20.77
2022-10-14T09:16:07.464Z,19.67
2022-10-14T09:18:39.823Z,19.75
2022-10-14T09:21:34.040Z,20.73
2022-10-14T09:24:14.699Z,19.67
2022-10-14T09:26:44.893Z,19.55
2022-10-14T09:29:25.957Z,19.38
2022-10-14T09:31:59.075Z,18.95
2022-10-14T09:34:32.381Z,17.90
2022-10-14T09:37:09.370Z,18.58
2022-10-14T09:39:40.892Z,18.67
2022-10-14T09:42:20.144Z,19.35
2022-10-14T09:47:50.962Z,19.38
2022-10-14T09:50:27.954Z,19.30
2022-10-14T09:53:01.530Z,20.98
2022-10-14T09:55:30.065Z,19.75
2022-10-14T09:58:05.275Z,19.40
2022-10-14T10:00:35.919Z,19.58
2022-10-14T10:03:06.071Z,19.73
2022-10-14T10:05:36.291Z,19.73
2022-10-14T10:08:16.790Z,19.27
2022-10-14T10:11:03.535Z,18.50
2022-10-14T10:13:39.544Z,17.85
2022-10-14T10:16:18.249Z,19.00
2022-10-14T10:18:47.921Z,18.63
2022-10-14T10:21:20.066Z,17.67
2022-10-14T10:23:53.928Z,16.67
2022-10-14T10:26:26.013Z,17.45
2022-10-14T10:28:57.500Z,16.95
2022-10-14T10:31:53.125Z,18.77
2022-10-14T10:34:53.680Z,17.13
2022-10-14T10:37:32.346Z,16.55
2022-10-14T10:40:29.961Z,16.75
2022-10-14T10:43:13.370Z,16.95
2022-10-14T10:45:53.766Z,17.00
2022-10-14T10:48:29.143Z,17.60
2022-10-14T10:51:01.555Z,16.38
2022-10-14T10:53:51.003Z,18.15
2022-10-14T10:56:31.404Z,18.38
2022-10-14T10:59:35.977Z,21.38
2022-10-14T11:02:38.889Z,17.85
2022-10-14T11:05:13.392Z,18.40
2022-10-14T11:08:11.229Z,17.98
2022-10-14T11:11:07.277Z,18.80
2022-10-14T11:13:46.650Z,18.83
2022-10-14T11:16:23.265Z,17.73
2022-10-14T11:18:56.504Z,19.15
2022-10-14T11:21:34.670Z,20.27
2022-10-14T11:24:11.384Z,20.67
2022-10-14T11:26:56.445Z,20.17
2022-10-14T11:29:41.099Z,19.58
2022-10-14T11:32:16.599Z,19.85
2022-10-14T11:34:53.985Z,22.10
2022-10-14T11:37:35.234Z,25.42
2022-10-14T11:40:10.894Z,22.50
2022-10-14T11:42:53.112Z,22.05
2022-10-14T11:45:48.202Z,23.67
2022-10-14T11:48:27.007Z,23.95
2022-10-14T11:50:59.738Z,25.35
2022-10-14T11:53:40.086Z,23.52
2022-10-14T11:56:15.956Z,25.25
2022-10-14T11:58:48.027Z,30.42
2022-10-14T12:01:22.263Z,25.27
2022-10-14T12:03:58.698Z,26.35
2022-10-14T12:06:32.031Z,27.73
2022-10-14T12:09:05.252Z,26.83
2022-10-14T12:11:36.842Z,24.73
2022-10-14T12:14:15.284Z,25.15
2022-10-14T12:16:45.747Z,24.17
2022-10-14T12:19:25.782Z,24.92
2022-10-14T12:21:59.305Z,24.17
2022-10-14T12:24:32.203Z,25.58
2022-10-14T12:27:04.733Z,24.38
2022-10-14T12:29:38.550Z,25.67
2022-10-14T12:32:20.889Z,26.70
2022-10-14T12:34:50.677Z,26.38
2022-10-14T12:37:52.915Z,25.33
2022-10-14T12:40:31.690Z,25.67
2022-10-14T12:43:30.377Z,27.08
2022-10-14T12:46:10.362Z,26.02
2022-10-14T12:48:46.962Z,27.50
2022-10-14T12:51:18.897Z,28.20
2022-10-14T12:54:04.932Z,29.15
2022-10-14T12:56:37.430Z,28.13
2022-10-14T12:59:08.688Z,28.95
2022-10-14T13:01:44.682Z,29.00
2022-10-14T13:04:20.034Z,28.45
2022-10-14T13:07:39.278Z,28.25
2022-10-14T13:10:47.289Z,28.77
2022-10-14T13:14:04.299Z,29.90
2022-10-14T13:17:04.015Z,32.00
2022-10-14T13:19:56.005Z,37.58
2022-10-14T13:22:40.199Z,44.45
2022-10-14T13:25:28.126Z,61.15
2022-10-14T13:28:15.267Z,36.58
2022-10-14T13:30:56.367Z,96.50
2022-10-14T13:33:32.747Z,58.90
2022-10-14T13:36:11.855Z,45.97
2022-10-14T13:38:42.685Z,40.17
2022-10-14T13:41:18.585Z,35.95
2022-10-14T13:43:46.708Z,36.28
2022-10-14T13:46:20.392Z,40.40
2022-10-14T13:48:51.723Z,36.42
2022-10-14T13:51:37.698Z,37.00
2022-10-14T13:54:18.892Z,37.38
2022-10-14T13:57:28.974Z,45.70
2022-10-14T14:00:28.148Z,38.78
2022-10-14T14:02:41.137Z,41.33
2022-10-14T14:05:17.118Z,38.03
2022-10-14T14:10:39.172Z,37.17
2022-10-14T14:13:14.434Z,38.13
2022-10-14T14:15:43.545Z,37.25
2022-10-14T14:18:38.181Z,38.72
2022-10-14T14:21:22.231Z,35.70
2022-10-14T14:23:52.048Z,38.53
2022-10-14T14:26:20.915Z,37.60
2022-10-14T14:28:50.129Z,36.22
2022-10-14T14:31:23.077Z,37.47
2022-10-14T14:33:51.225Z,37.47
2022-10-14T14:36:27.691Z,38.35
2022-10-14T14:39:08.198Z,35.70
2022-10-14T14:41:36.366Z,36.45
2022-10-14T14:44:24.523Z,37.00
2022-10-14T14:46:57.861Z,35.65
2022-10-14T14:49:29.983Z,35.60
2022-10-14T14:52:01.954Z,35.17
2022-10-14T14:54:30.426Z,33.50
2022-10-14T14:57:04.033Z,33.60
2022-10-14T14:59:35.517Z,33.97
2022-10-14T15:02:06.079Z,34.15
2022-10-14T15:04:36.269Z,34.15
2022-10-14T15:07:11.353Z,32.45
2022-10-14T15:09:44.410Z,32.53
2022-10-14T15:12:17.927Z,32.80
2022-10-14T15:14:48.355Z,32.08
2022-10-14T15:17:29.265Z,31.80
2022-10-14T15:20:00.128Z,28.95
2022-10-14T15:22:34.905Z,29.35
2022-10-14T15:25:10.296Z,29.20
2022-10-14T15:27:49.242Z,29.35
2022-10-14T15:30:35.695Z,34.78
2022-10-14T15:33:13.531Z,86.65
2022-10-14T15:35:42.475Z,75.03
2022-10-14T15:38:16.475Z,36.40
2022-10-14T15:40:45.390Z,44.85
2022-10-14T15:43:17.512Z,33.38
2022-10-14T15:46:12.686Z,30.77
2022-10-14T15:48:41.153Z,28.67
2022-10-14T15:51:14.026Z,34.90
2022-10-14T15:53:43.513Z,25.98
2022-10-14T15:56:11.686Z,43.53
2022-10-14T15:58:40.092Z,42.35
2022-10-14T16:01:08.814Z,30.15
2022-10-14T16:03:41.091Z,27.77
2022-10-14T16:06:11.369Z,25.85
2022-10-14T16:08:42.210Z,23.60
2022-10-14T16:11:22.947Z,27.88
2022-10-14T16:13:51.014Z,24.38
2022-10-14T16:16:23.307Z,26.38
2022-10-14T16:18:51.749Z,27.88
2022-10-14T16:21:19.861Z,24.92
2022-10-14T16:23:47.900Z,31.45
2022-10-14T16:26:15.959Z,28.40
2022-10-14T16:28:45.463Z,25.23
2022-10-14T16:31:16.220Z,23.55
2022-10-14T16:33:45.785Z,24.70
2022-10-14T16:36:15.993Z,23.88
2022-10-14T16:38:44.203Z,23.80
2022-10-14T16:41:12.540Z,23.30
2022-10-14T16:43:45.371Z,22.95
2022-10-14T16:46:15.725Z,22.42
2022-10-14T16:48:44.606Z,23.48
2022-10-14T16:51:12.625Z,23.30
2022-10-14T16:53:45.046Z,23.95
2022-10-14T16:56:33.618Z,23.15
2022-10-14T16:59:03.840Z,23.50
2022-10-14T17:01:32.284Z,22.58
2022-10-14T17:04:00.330Z,24.05
2022-10-14T17:06:28.533Z,25.05
2022-10-14T17:08:56.545Z,44.15
2022-10-14T17:11:27.420Z,45.35
2022-10-14T17:13:58.638Z,26.95
2022-10-14T17:16:28.523Z,29.15
2022-10-14T17:18:58.378Z,24.67
2022-10-14T17:21:28.111Z,24.80
2022-10-14T17:23:57.467Z,25.50
2022-10-14T17:26:25.581Z,23.50
2022-10-14T17:28:53.700Z,24.00
2022-10-14T17:31:22.753Z,26.02
2022-10-14T17:33:52.757Z,23.48
2022-10-14T17:36:24.094Z,26.42
2022-10-14T17:38:52.669Z,26.98
2022-10-14T17:41:20.727Z,25.08
2022-10-14T17:43:50.069Z,25.80
2022-10-14T17:46:21.293Z,25.48
2022-10-14T17:48:52.962Z,25.42
2022-10-14T17:51:23.688Z,26.13
2022-10-14T17:53:54.598Z,28.95
2022-10-14T17:56:22.745Z,29.88
2022-10-14T17:58:53.402Z,28.95
2022-10-14T18:01:36.667Z,24.73
2022-10-14T18:04:11.818Z,34.47
2022-10-14T18:06:41.228Z,23.80
2022-10-14T18:09:13.578Z,24.50
2022-10-14T18:14:31.605Z,23.13
2022-10-14T18:17:00.046Z,23.98
2022-10-14T18:19:29.798Z,23.90
2022-10-14T18:21:59.505Z,24.20
2022-10-14T18:24:27.756Z,22.33
2022-10-14T18:26:56.465Z,25.40
2022-10-14T18:29:27.021Z,24.45
2022-10-14T18:31:55.454Z,24.88
2022-10-14T18:34:25.513Z,24.10
2022-10-14T18:36:55.364Z,23.98
2022-10-14T18:39:24.091Z,23.20
2022-10-14T18:41:52.223Z,21.83
2022-10-14T18:44:20.579Z,21.20
2022-10-14T18:46:48.858Z,19.95
2022-10-14T18:49:17.009Z,21.10
2022-10-14T18:51:45.702Z,21.55
2022-10-14T18:54:20.498Z,21.90
2022-10-14T18:56:49.167Z,21.83
2022-10-14T18:59:19.458Z,21.15
2022-10-14T19:01:53.446Z,21.98
2022-10-14T19:04:23.659Z,20.48
2022-10-14T19:06:54.245Z,19.55
2022-10-14T19:09:29.056Z,20.58
2022-10-14T19:11:59.163Z,22.25
2022-10-14T19:14:28.773Z,21.75
2022-10-14T19:16:57.878Z,23.40
2022-10-14T19:19:28.610Z,22.83
2022-10-14T19:21:59.737Z,22.55
2022-10-14T19:24:32.201Z,22.15
2022-10-14T19:27:00.264Z,19.55
2022-10-14T19:29:28.276Z,18.23
2022-10-14T19:32:01.406Z,17.60
2022-10-14T19:34:29.616Z,18.45
2022-10-14T19:37:00.786Z,17.70
2022-10-14T19:39:30.254Z,19.05
2022-10-14T19:41:58.237Z,18.95
2022-10-14T19:44:26.406Z,19.50
2022-10-14T19:46:54.562Z,21.55
2022-10-14T19:49:22.551Z,19.63
2022-10-14T19:51:51.590Z,20.00
2022-10-14T19:54:21.102Z,20.73
2022-10-14T19:56:50.747Z,20.85
2022-10-14T19:59:21.598Z,21.50
2022-10-14T20:01:50.001Z,21.23
2022-10-14T20:04:25.137Z,21.15
2022-10-14T20:06:55.484Z,21.65
2022-10-14T20:09:24.670Z,22.40
2022-10-14T20:11:57.042Z,21.27
2022-10-14T20:14:26.630Z,22.38
2022-10-14T20:16:57.823Z,21.08
2022-10-14T20:19:25.896Z,20.95
2022-10-14T20:21:53.880Z,21.33
2022-10-14T20:24:21.958Z,21.13
2022-10-14T20:26:53.624Z,20.83
2022-10-14T20:29:23.178Z,20.27
2022-10-14T20:31:51.214Z,19.58
2022-10-14T20:34:19.438Z,20.65
2022-10-14T20:36:47.389Z,20.00
2022-10-14T20:39:15.655Z,20.00
2022-10-14T20:41:43.676Z,19.05
2022-10-14T20:44:11.643Z,19.10
2022-10-14T20:46:41.058Z,20.20
2022-10-14T20:49:09.319Z,20.45
2022-10-14T20:51:37.482Z,19.40
2022-10-14T20:54:08.370Z,20.08
2022-10-14T20:56:38.281Z,20.35
2022-10-14T20:59:08.679Z,20.80
2022-10-14T21:01:37.677Z,20.85
2022-10-14T21:04:09.211Z,20.70
2022-10-14T21:06:39.359Z,21.17
2022-10-14T21:09:07.441Z,20.70
2022-10-14T21:11:35.502Z,20.45
2022-10-14T21:14:03.787Z,21.95
2022-10-14T21:16:33.420Z,21.48
2022-10-14T21:19:03.995Z,20.08
2022-10-14T21:21:36.950Z,20.70
2022-10-14T21:24:05.974Z,21.02
2022-10-14T21:26:34.076Z,22.30
2022-10-14T21:29:02.564Z,21.58
2022-10-14T21:31:31.303Z,22.65
2022-10-14T21:34:05.483Z,21.33
2022-10-14T21:36:35.851Z,21.13
2022-10-14T21:39:07.930Z,22.35
2022-10-14T21:41:36.163Z,23.17
2022-10-14T21:44:04.639Z,22.95
2022-10-14T21:46:32.989Z,21.90
2022-10-14T21:49:01.185Z,22.17
2022-10-14T21:51:31.136Z,21.42
2022-10-14T21:54:00.654Z,21.70
2022-10-14T21:56:30.101Z,22.10
2022-10-14T21:58:58.145Z,22.15
2022-10-14T22:01:28.149Z,21.60
2022-10-14T22:03:57.760Z,22.73
2022-10-14T22:06:26.849Z,22.98
2022-10-14T22:08:56.857Z,22.33
2022-10-14T22:11:27.984Z,23.38
2022-10-14T22:13:57.251Z,23.00
2022-10-14T22:16:25.950Z,22.60
2022-10-14T22:18:54.658Z,22.45
2022-10-14T22:21:24.730Z,21.60
2022-10-14T22:23:53.322Z,21.20
2022-10-14T22:26:23.646Z,21.63
2022-10-14T22:28:59.131Z,21.70
2022-10-14T22:31:27.609Z,20.92
2022-10-14T22:33:55.698Z,21.50
2022-10-14T22:36:25.570Z,21.17
2022-10-14T22:38:54.637Z,21.50
2022-10-14T22:41:23.814Z,21.55
2022-10-14T22:43:54.665Z,22.30
2022-10-14T22:46:26.152Z,21.00
2022-10-14T22:48:56.318Z,20.77
2022-10-14T22:53:55.633Z,20.23
2022-10-14T22:56:26.160Z,20.88
2022-10-14T22:58:56.145Z,21.95
2022-10-14T23:01:27.767Z,20.00
2022-10-14T23:03:56.869Z,21.42
2022-10-14T23:06:25.210Z,22.40
2022-10-14T23:08:54.359Z,21.88
2022-10-14T23:11:24.090Z,21.63
2022-10-14T23:13:52.484Z,22.45
2022-10-14T23:16:23.673Z,22.35
2022-10-14T23:18:52.793Z,22.55
2022-10-14T23:21:22.521Z,22.92
2022-10-14T23:23:52.274Z,22.85
2022-10-14T23:26:22.355Z,23.63
2022-10-14T23:28:52.390Z,23.45
2022-10-14T23:31:23.033Z,23.63
2022-10-14T23:33:52.315Z,24.30
2022-10-14T23:36:21.165Z,24.35
2022-10-14T23:38:49.789Z,24.75
2022-10-14T23:41:17.807Z,24.20
2022-10-14T23:43:45.946Z,25.95
2022-10-14T23:46:13.924Z,25.30
2022-10-14T23:48:43.433Z,25.13
2022-10-14T23:51:13.366Z,24.80
2022-10-14T23:53:41.407Z,25.85
2022-10-14T23:56:09.455Z,25.98
2022-10-14T23:58:37.438Z,26.02
